This is the latest recevied weather packets stored in our database for station/object KH2PM. If no packets are shown the sender has not sent any weather packets the latest 10 day(s).
| Time | Temp. | Humidity | Pressure | Rain* | Wind** | Luminosity | Snow |
|---|---|---|---|---|---|---|---|
| 1777344904 | 12.22° C | 85% | 1024.1 hPa | 0 mm | - | - | - |
| 1777344307 | 12.22° C | 83% | 1024 hPa | 0 mm | - | - | - |
| 1777342204 | 12.78° C | 82% | 1024.1 hPa | 0 mm | - | - | - |
| 1777341304 | 12.78° C | 80% | 1024.1 hPa | 0 mm | - | - | - |
| 1777336205 | 15.56° C | 68% | 1023.3 hPa | 0 mm | - | - | - |
| 1777335904 | 16.11° C | 68% | 1023.3 hPa | 0 mm | - | - | - |
| 1777335604 | 16.11° C | 65% | 1023.3 hPa | 0 mm | - | - | - |
| 1777333807 | 17.78° C | 57% | 1022.6 hPa | 0 mm | - | - | - |
| 1777333504 | 17.78° C | 57% | 1022.6 hPa | 0 mm | - | - | - |
| 1777332605 | 18.33° C | 56% | 1022.6 hPa | 0 mm | - | - | - |
| 1777331707 | 18.33° C | 54% | 1022.5 hPa | 0 mm | - | - | - |
| 1777329907 | 19.44° C | 51% | 1022.4 hPa | 0 mm | - | - | - |
| 1777328705 | 20° C | 50% | 1022.2 hPa | 0 mm | - | - | - |
| 1777327504 | 20.56° C | 48% | 1022.1 hPa | 0 mm | - | - | - |
| 1777326307 | 21.67° C | 47% | 1022.1 hPa | 0 mm | - | - | - |
| 1777313707 | 20° C | 51% | 1023.4 hPa | 0 mm | - | - | - |
| 1777309504 | 18.33° C | 54% | 1024 hPa | 0 mm | - | - | - |
| 1777309206 | 18.33° C | 57% | 1024 hPa | 0 mm | - | - | - |
| 1777306205 | 17.78° C | 56% | 1024.4 hPa | 0 mm | - | - | - |
| 1777305904 | 17.78° C | 58% | 1024.3 hPa | 0 mm | - | - | - |
| 1777303805 | 16.67° C | 59% | 1024.8 hPa | 0 mm | - | - | - |
| 1777302305 | 15.56° C | 61% | 1024.8 hPa | 0 mm | - | - | - |
| 1777302005 | 15.56° C | 61% | 1024.8 hPa | 0 mm | - | - | - |
| 1777301705 | 15.56° C | 61% | 1024.9 hPa | 0 mm | - | - | - |
| 1777301404 | 15.56° C | 60% | 1024.9 hPa | 0 mm | - | - | - |
* Rain latest hour (hover to see other rain measurements)
** Current wind speed in m/s (hover to see current wind gust speed)